createdAt,value
2018-01-22T00:00:20.555Z,98.20
2018-01-22T00:02:50.009Z,98.20
2018-01-22T00:05:19.401Z,98.30
2018-01-22T00:07:49.169Z,98.30
2018-01-22T00:10:19.382Z,98.30
2018-01-22T00:12:48.899Z,98.40
2018-01-22T00:15:18.718Z,98.20
2018-01-22T00:17:48.925Z,98.30
2018-01-22T00:20:18.376Z,98.30
2018-01-22T00:22:47.730Z,98.40
2018-01-22T00:25:17.132Z,98.50
2018-01-22T00:27:48.480Z,98.50
2018-01-22T00:30:19.511Z,98.60
2018-01-22T00:32:49.127Z,98.50
2018-01-22T00:35:18.594Z,98.30
2018-01-22T00:37:47.865Z,98.60
2018-01-22T00:40:17.461Z,98.30
2018-01-22T00:42:48.808Z,98.40
2018-01-22T00:45:19.983Z,98.30
2018-01-22T00:47:51.002Z,98.30
2018-01-22T00:50:20.875Z,98.30
2018-01-22T00:52:57.457Z,98.30
2018-01-22T00:55:30.458Z,98.20
2018-01-22T00:58:00.536Z,98.00
2018-01-22T01:00:29.919Z,98.00
2018-01-22T01:03:00.739Z,98.10
2018-01-22T01:05:32.217Z,98.20
2018-01-22T01:08:01.711Z,98.20
2018-01-22T01:10:32.318Z,98.30
2018-01-22T01:13:02.279Z,98.40
2018-01-22T01:15:32.944Z,98.40
2018-01-22T01:18:03.837Z,98.30
2018-01-22T01:20:34.204Z,98.20
2018-01-22T01:23:03.365Z,98.30
2018-01-22T01:25:32.812Z,98.30
2018-01-22T01:28:02.094Z,98.20
2018-01-22T01:30:31.797Z,98.00
2018-01-22T01:33:01.179Z,98.10
2018-01-22T01:35:30.832Z,98.10
2018-01-22T01:38:00.034Z,98.00
2018-01-22T01:40:29.183Z,98.20
2018-01-22T01:42:58.415Z,98.20
2018-01-22T01:45:27.576Z,98.30
2018-01-22T01:47:59.389Z,98.30
2018-01-22T01:55:06.595Z,98.50
2018-01-22T01:57:36.220Z,98.60
2018-01-22T02:00:06.121Z,98.80
2018-01-22T02:02:35.191Z,98.80
2018-01-22T02:05:04.634Z,98.70
2018-01-22T02:07:33.817Z,98.60
2018-01-22T02:10:03.337Z,98.70
2018-01-22T02:12:33.778Z,99.10
2018-01-22T02:15:03.039Z,99.10
2018-01-22T02:17:33.694Z,99.10
2018-01-22T02:20:03.952Z,99.10
2018-01-22T02:22:36.192Z,99.10
2018-01-22T02:25:05.936Z,99.20
2018-01-22T02:27:35.094Z,99.20
2018-01-22T02:30:05.127Z,99.50
2018-01-22T02:32:34.707Z,99.10
2018-01-22T02:35:03.926Z,99.20
2018-01-22T02:37:33.115Z,99.30
2018-01-22T02:40:04.270Z,99.50
2018-01-22T02:42:33.568Z,99.40
2018-01-22T02:45:03.687Z,99.50
2018-01-22T02:47:33.483Z,99.60
2018-01-22T02:50:02.576Z,99.60
2018-01-22T02:52:31.641Z,99.50
2018-01-22T02:55:00.673Z,99.30
2018-01-22T02:57:30.524Z,99.30
2018-01-22T03:00:00.048Z,99.30
2018-01-22T03:02:29.118Z,99.20
2018-01-22T03:04:58.226Z,99.40
2018-01-22T03:07:27.234Z,99.40
2018-01-22T03:09:57.227Z,99.60
2018-01-22T03:12:26.605Z,99.60
2018-01-22T03:14:55.635Z,99.50
2018-01-22T03:17:24.720Z,99.60
2018-01-22T03:19:53.887Z,99.60
2018-01-22T03:22:23.684Z,99.60
2018-01-22T03:24:53.443Z,99.60
2018-01-22T03:27:22.658Z,99.90
2018-01-22T03:29:51.804Z,99.60
2018-01-22T03:32:21.204Z,99.40
2018-01-22T03:34:51.236Z,99.50
2018-01-22T03:37:21.541Z,99.50
2018-01-22T03:39:50.761Z,99.50
2018-01-22T03:42:22.746Z,99.60
2018-01-22T03:44:51.834Z,99.60
2018-01-22T03:47:20.765Z,99.60
2018-01-22T03:49:49.956Z,99.30
2018-01-22T03:52:18.972Z,99.40
2018-01-22T03:54:48.005Z,99.50
2018-01-22T03:57:17.006Z,99.60
2018-01-22T03:59:46.151Z,99.80
2018-01-22T04:02:15.372Z,99.70
2018-01-22T04:04:45.150Z,99.90
2018-01-22T04:07:17.578Z,99.90
2018-01-22T04:09:46.614Z,99.90
2018-01-22T04:12:15.787Z,99.90
2018-01-22T04:14:45.016Z,99.90
2018-01-22T04:17:14.202Z,99.90
2018-01-22T04:19:44.583Z,99.90
2018-01-22T04:22:14.250Z,99.90
2018-01-22T04:24:43.248Z,99.90
2018-01-22T04:27:14.691Z,99.90
2018-01-22T04:29:43.730Z,99.90
2018-01-22T04:32:12.808Z,99.90
2018-01-22T04:34:41.813Z,99.90
2018-01-22T04:37:12.961Z,99.90
2018-01-22T04:39:44.528Z,99.90
2018-01-22T04:42:13.870Z,99.90
2018-01-22T04:44:43.073Z,99.90
2018-01-22T04:47:12.326Z,99.90
2018-01-22T04:49:42.033Z,99.90
2018-01-22T04:52:11.300Z,99.90
2018-01-22T04:54:41.294Z,99.90
2018-01-22T04:57:10.591Z,99.90
2018-01-22T04:59:40.698Z,99.90
2018-01-22T05:02:10.787Z,99.90
2018-01-22T05:04:40.101Z,99.90
2018-01-22T05:07:09.544Z,99.90
2018-01-22T05:09:40.070Z,99.90
2018-01-22T05:12:09.344Z,99.90
2018-01-22T05:14:38.471Z,99.90
2018-01-22T05:17:07.663Z,99.90
2018-01-22T05:19:36.872Z,99.90
2018-01-22T05:22:06.516Z,99.90
2018-01-22T05:24:35.965Z,99.90
2018-01-22T05:27:05.237Z,99.90
2018-01-22T05:29:34.489Z,99.90
2018-01-22T05:32:03.681Z,99.90
2018-01-22T05:34:33.340Z,99.90
2018-01-22T05:37:02.430Z,99.90
2018-01-22T05:39:31.539Z,99.90
2018-01-22T05:42:00.672Z,99.90
2018-01-22T05:44:29.670Z,99.90
2018-01-22T05:46:59.178Z,99.90
2018-01-22T05:49:28.271Z,99.90
2018-01-22T05:51:57.251Z,99.90
2018-01-22T05:54:26.605Z,99.90
2018-01-22T05:56:55.837Z,99.90
2018-01-22T05:59:25.566Z,99.90
2018-01-22T06:01:54.858Z,99.90
2018-01-22T06:04:24.016Z,99.90
2018-01-22T06:06:53.287Z,99.90
2018-01-22T06:09:22.567Z,99.90
2018-01-22T06:11:51.764Z,99.90
2018-01-22T06:14:20.811Z,99.90
2018-01-22T06:16:50.150Z,99.90
2018-01-22T06:19:22.774Z,99.90
2018-01-22T06:21:52.740Z,99.90
2018-01-22T06:24:22.051Z,99.90
2018-01-22T06:26:51.255Z,99.90
2018-01-22T06:29:21.012Z,99.90
2018-01-22T06:31:50.302Z,99.90
2018-01-22T06:34:19.502Z,99.90
2018-01-22T06:36:48.848Z,99.90
2018-01-22T06:39:18.105Z,99.90
2018-01-22T06:41:48.236Z,99.90
2018-01-22T06:44:25.554Z,99.90
2018-01-22T06:47:13.206Z,99.90
2018-01-22T06:49:42.788Z,99.90
2018-01-22T06:52:12.613Z,99.90
2018-01-22T06:54:42.531Z,99.90
2018-01-22T06:57:11.784Z,99.90
2018-01-22T06:59:41.358Z,99.90
2018-01-22T07:02:11.683Z,99.90
2018-01-22T07:04:42.403Z,99.90
2018-01-22T07:07:12.745Z,99.90
2018-01-22T07:09:42.267Z,99.90
2018-01-22T07:12:11.730Z,99.90
2018-01-22T07:14:40.754Z,99.90
2018-01-22T07:17:10.396Z,99.90
2018-01-22T07:19:39.466Z,99.90
2018-01-22T07:22:08.585Z,99.90
2018-01-22T07:24:42.853Z,99.90
2018-01-22T07:27:13.075Z,99.90
2018-01-22T07:29:42.809Z,99.90
2018-01-22T07:32:12.856Z,99.90
2018-01-22T07:34:42.108Z,99.90
2018-01-22T07:37:11.712Z,99.90
2018-01-22T07:39:41.838Z,99.90
2018-01-22T07:42:11.850Z,99.90
2018-01-22T07:44:42.181Z,99.90
2018-01-22T07:47:12.093Z,99.90
2018-01-22T07:49:42.016Z,99.90
2018-01-22T07:52:11.967Z,99.90
2018-01-22T07:54:41.219Z,99.90
2018-01-22T07:57:11.289Z,99.90
2018-01-22T07:59:40.641Z,99.90
2018-01-22T08:02:10.048Z,99.90
2018-01-22T08:04:40.033Z,99.90
2018-01-22T08:07:10.455Z,99.90
2018-01-22T08:09:40.152Z,99.90
2018-01-22T08:12:09.798Z,99.90
2018-01-22T08:14:39.219Z,99.90
2018-01-22T08:17:09.167Z,99.90
2018-01-22T08:19:38.563Z,99.90
2018-01-22T08:22:08.526Z,99.90
2018-01-22T08:24:38.039Z,99.90
2018-01-22T08:27:07.981Z,99.90
2018-01-22T08:29:37.704Z,99.90
2018-01-22T08:32:06.802Z,99.90
2018-01-22T08:34:36.705Z,99.90
2018-01-22T08:37:06.307Z,99.90
2018-01-22T08:39:35.677Z,99.90
2018-01-22T08:42:05.504Z,99.90
2018-01-22T08:44:35.536Z,99.90
2018-01-22T08:47:04.750Z,99.90
2018-01-22T08:49:34.111Z,99.90
2018-01-22T08:52:03.407Z,99.90
2018-01-22T08:54:32.521Z,99.90
2018-01-22T08:57:02.327Z,99.90
2018-01-22T08:59:32.474Z,99.90
2018-01-22T09:02:02.085Z,99.90
2018-01-22T09:04:31.696Z,99.90
2018-01-22T09:07:01.126Z,99.90
2018-01-22T09:09:30.548Z,99.80
2018-01-22T09:12:00.093Z,99.80
2018-01-22T09:14:30.179Z,99.20
2018-01-22T09:16:59.257Z,99.20
2018-01-22T09:19:28.555Z,99.10
2018-01-22T09:21:57.617Z,99.20
2018-01-22T09:24:27.016Z,99.40
2018-01-22T09:26:56.182Z,99.60
2018-01-22T09:29:25.308Z,99.70
2018-01-22T09:31:54.518Z,99.70
2018-01-22T09:34:23.877Z,99.60
2018-01-22T09:36:53.827Z,99.50
2018-01-22T09:39:23.179Z,99.50
2018-01-22T09:41:52.826Z,99.40
2018-01-22T09:44:22.169Z,98.90
2018-01-22T09:46:51.614Z,98.70
2018-01-22T09:49:21.643Z,98.50
2018-01-22T09:51:57.107Z,98.20
2018-01-22T09:54:26.909Z,98.20
2018-01-22T09:56:56.357Z,98.00
2018-01-22T09:59:25.701Z,97.60
2018-01-22T10:01:56.307Z,97.30
2018-01-22T10:04:25.699Z,97.20
2018-01-22T10:06:55.112Z,97.10
2018-01-22T10:09:24.411Z,96.50
2018-01-22T10:11:54.004Z,95.90
2018-01-22T10:14:23.724Z,96.10
2018-01-22T10:16:52.972Z,96.10
2018-01-22T10:19:22.347Z,95.90
2018-01-22T10:21:51.678Z,96.00
2018-01-22T10:24:21.085Z,96.20
2018-01-22T10:26:51.578Z,96.60
2018-01-22T10:29:21.840Z,96.20
2018-01-22T10:31:53.095Z,96.30
2018-01-22T10:34:22.351Z,96.30
2018-01-22T10:36:52.344Z,96.70
2018-01-22T10:39:21.950Z,96.70
2018-01-22T10:41:52.205Z,96.80
2018-01-22T10:44:22.367Z,96.70
2018-01-22T10:46:51.499Z,96.70
2018-01-22T10:49:20.534Z,96.70
2018-01-22T10:51:50.177Z,96.70
2018-01-22T10:54:19.350Z,96.50
2018-01-22T10:56:48.713Z,96.60
2018-01-22T10:59:18.206Z,96.40
2018-01-22T11:01:47.710Z,96.40
2018-01-22T11:04:16.830Z,96.10
2018-01-22T11:06:47.324Z,95.80
2018-01-22T11:09:16.904Z,95.80
2018-01-22T11:11:51.460Z,95.50
2018-01-22T11:14:21.122Z,95.30
2018-01-22T11:16:51.106Z,95.00
2018-01-22T11:19:20.443Z,95.00
2018-01-22T11:21:50.231Z,94.30
2018-01-22T11:24:19.833Z,94.30
2018-01-22T11:26:50.078Z,93.90
2018-01-22T11:29:19.565Z,93.80
2018-01-22T11:31:49.969Z,94.30
2018-01-22T11:34:22.171Z,94.30
2018-01-22T11:36:52.073Z,93.70
2018-01-22T11:39:22.433Z,93.90
2018-01-22T11:41:52.478Z,93.90
2018-01-22T11:44:22.699Z,93.80
2018-01-22T11:47:04.074Z,94.20
2018-01-22T11:49:36.948Z,94.30
2018-01-22T11:52:06.348Z,94.20
2018-01-22T11:54:35.666Z,94.20
2018-01-22T11:57:05.791Z,94.40
2018-01-22T11:59:34.952Z,94.20
2018-01-22T12:02:05.659Z,94.40
2018-01-22T12:04:35.123Z,94.40
2018-01-22T12:07:04.839Z,94.40
2018-01-22T12:09:34.549Z,94.20
2018-01-22T12:12:04.180Z,93.50
2018-01-22T12:14:34.193Z,92.10
2018-01-22T12:17:04.539Z,92.10
2018-01-22T12:19:34.750Z,91.70
2018-01-22T12:22:05.617Z,92.10
2018-01-22T12:24:37.834Z,92.60
2018-01-22T12:27:09.487Z,92.70
2018-01-22T12:29:38.850Z,92.90
2018-01-22T12:32:08.614Z,92.60
2018-01-22T12:34:37.900Z,92.80
2018-01-22T12:37:09.021Z,92.70
2018-01-22T12:39:38.408Z,93.10
2018-01-22T12:42:08.291Z,93.20
2018-01-22T12:44:38.397Z,93.00
2018-01-22T12:47:07.684Z,93.20
2018-01-22T12:49:36.914Z,93.00
2018-01-22T12:52:06.568Z,93.30
2018-01-22T12:54:35.702Z,93.50
2018-01-22T12:57:04.878Z,93.50
2018-01-22T12:59:34.201Z,93.40
2018-01-22T13:02:12.250Z,92.80
2018-01-22T13:04:47.846Z,92.80
2018-01-22T13:07:17.455Z,92.80
2018-01-22T13:09:48.164Z,93.40
2018-01-22T13:12:18.288Z,93.10
2018-01-22T13:14:47.703Z,92.60
2018-01-22T13:17:17.191Z,92.90
2018-01-22T13:19:47.001Z,93.00
2018-01-22T13:22:17.994Z,92.70
2018-01-22T13:24:47.408Z,92.90
2018-01-22T13:27:17.009Z,93.00
2018-01-22T13:29:46.355Z,93.40
2018-01-22T13:32:15.712Z,93.00
2018-01-22T13:34:45.436Z,92.90
2018-01-22T13:37:16.062Z,92.80
2018-01-22T13:39:49.127Z,92.20
2018-01-22T13:42:20.386Z,92.40
2018-01-22T13:44:49.701Z,92.40
2018-01-22T13:47:20.727Z,92.20
2018-01-22T13:49:52.697Z,92.50
2018-01-22T13:52:22.255Z,92.60
2018-01-22T13:54:51.580Z,92.60
2018-01-22T13:57:29.709Z,92.30
2018-01-22T13:59:59.242Z,92.40
2018-01-22T14:02:28.503Z,92.40
2018-01-22T14:04:58.620Z,92.40
2018-01-22T14:07:29.089Z,92.40
2018-01-22T14:10:06.279Z,92.30
2018-01-22T14:12:36.524Z,92.60
2018-01-22T14:15:06.833Z,92.60
2018-01-22T14:17:44.483Z,92.50
2018-01-22T14:20:13.768Z,92.20
2018-01-22T14:22:44.307Z,92.50
2018-01-22T14:25:14.663Z,92.40
2018-01-22T14:27:44.007Z,92.40
2018-01-22T14:30:18.366Z,92.30
2018-01-22T14:32:49.959Z,92.30
2018-01-22T14:35:19.082Z,92.40
2018-01-22T14:41:24.041Z,92.90
2018-01-22T14:43:53.642Z,92.80
2018-01-22T14:46:24.288Z,92.80
2018-01-22T14:48:54.560Z,92.80
2018-01-22T14:51:24.677Z,92.80
2018-01-22T14:53:56.525Z,92.60
2018-01-22T14:56:26.807Z,92.90
2018-01-22T14:58:57.717Z,92.80
2018-01-22T15:01:27.817Z,92.80
2018-01-22T15:04:03.437Z,92.60
2018-01-22T15:06:33.794Z,92.40
2018-01-22T15:09:04.209Z,92.70
2018-01-22T15:11:36.489Z,92.40
2018-01-22T15:14:06.454Z,92.50
2018-01-22T15:16:37.951Z,92.60
2018-01-22T15:19:08.129Z,92.60
2018-01-22T15:21:38.244Z,92.80
2018-01-22T15:24:10.481Z,92.60
2018-01-22T15:26:41.164Z,92.70
2018-01-22T15:29:12.396Z,92.70
2018-01-22T15:31:43.157Z,92.70
2018-01-22T15:34:14.432Z,92.60
2018-01-22T15:36:46.876Z,92.60
2018-01-22T15:39:17.776Z,92.80
2018-01-22T15:41:55.478Z,92.70
2018-01-22T15:44:25.916Z,92.70
2018-01-22T15:46:56.443Z,92.60
2018-01-22T15:49:29.119Z,92.50
2018-01-22T15:51:58.920Z,92.30
2018-01-22T15:54:31.208Z,92.40
2018-01-22T15:57:02.528Z,92.40
2018-01-22T15:59:32.612Z,92.40
2018-01-22T16:02:02.769Z,92.30
2018-01-22T16:04:42.883Z,92.40
2018-01-22T16:07:13.607Z,92.40
2018-01-22T16:09:43.294Z,92.40
2018-01-22T16:12:14.088Z,92.60
2018-01-22T16:14:44.435Z,92.50
2018-01-22T16:17:15.426Z,92.20
2018-01-22T16:19:46.577Z,92.30
2018-01-22T16:22:16.792Z,92.20
2018-01-22T16:24:47.345Z,92.30
2018-01-22T16:27:16.942Z,92.20
2018-01-22T16:29:48.500Z,91.40
2018-01-22T16:32:19.832Z,91.90
2018-01-22T16:34:49.723Z,92.00
2018-01-22T16:37:19.543Z,91.60
2018-01-22T16:39:49.058Z,91.60
2018-01-22T16:42:19.473Z,91.70
2018-01-22T16:44:54.609Z,91.90
2018-01-22T16:47:29.256Z,92.00
2018-01-22T16:49:58.972Z,91.90
2018-01-22T16:52:29.540Z,92.00
2018-01-22T16:54:59.795Z,92.00
2018-01-22T16:57:32.677Z,92.00
2018-01-22T17:00:03.704Z,92.00
2018-01-22T17:02:34.316Z,91.90
2018-01-22T17:05:05.410Z,92.20
2018-01-22T17:07:36.404Z,92.10
2018-01-22T17:10:07.517Z,92.10
2018-01-22T17:12:37.632Z,92.00
2018-01-22T17:15:09.132Z,92.10
2018-01-22T17:17:46.962Z,92.10
2018-01-22T17:20:23.788Z,91.80
2018-01-22T17:22:54.544Z,92.10
2018-01-22T17:25:24.934Z,92.10
2018-01-22T17:28:00.572Z,91.80
2018-01-22T17:30:35.436Z,91.70
2018-01-22T17:33:05.440Z,91.50
2018-01-22T17:35:36.320Z,91.50
2018-01-22T17:38:06.275Z,91.60
2018-01-22T17:40:37.268Z,91.40
2018-01-22T17:43:07.664Z,91.40
2018-01-22T17:45:37.925Z,91.80
2018-01-22T17:48:08.217Z,91.70
2018-01-22T17:50:38.484Z,91.60
2018-01-22T17:53:08.093Z,91.80
2018-01-22T17:55:37.799Z,91.70
2018-01-22T17:58:08.117Z,91.70
2018-01-22T18:00:40.425Z,91.90
2018-01-22T18:03:11.172Z,91.80
2018-01-22T18:05:41.922Z,91.80
2018-01-22T18:08:12.476Z,92.00
2018-01-22T18:10:43.926Z,92.00
2018-01-22T18:13:13.860Z,92.10
2018-01-22T18:15:44.133Z,92.10
2018-01-22T18:18:14.754Z,92.30
2018-01-22T18:20:44.899Z,92.30
2018-01-22T18:23:16.141Z,92.80
2018-01-22T18:25:46.575Z,92.80
2018-01-22T18:28:17.375Z,92.80
2018-01-22T18:30:51.194Z,92.70
2018-01-22T18:33:21.427Z,92.70
2018-01-22T18:35:51.696Z,92.60
2018-01-22T18:38:21.497Z,92.40
2018-01-22T18:40:52.623Z,92.20
2018-01-22T18:43:26.443Z,92.40
2018-01-22T18:45:58.105Z,92.30
2018-01-22T18:48:29.480Z,92.30
2018-01-22T18:51:00.098Z,92.20
2018-01-22T18:53:30.584Z,92.00
2018-01-22T18:56:13.588Z,92.20
2018-01-22T18:58:50.675Z,92.00
2018-01-22T19:01:23.401Z,92.20
2018-01-22T19:03:55.282Z,92.60
2018-01-22T19:06:26.089Z,92.60
2018-01-22T19:09:02.274Z,92.80
2018-01-22T19:11:33.074Z,92.50
2018-01-22T19:14:03.736Z,92.60
2018-01-22T19:16:34.727Z,92.60
2018-01-22T19:19:06.107Z,92.60
2018-01-22T19:21:36.644Z,92.60
2018-01-22T19:24:06.654Z,92.50
2018-01-22T19:26:36.714Z,92.40
2018-01-22T19:29:06.712Z,92.70
2018-01-22T19:31:37.029Z,92.70
2018-01-22T19:34:10.798Z,92.90
2018-01-22T19:36:46.967Z,92.90
2018-01-22T19:39:26.218Z,92.90
2018-01-22T19:42:09.561Z,92.90
2018-01-22T19:44:45.519Z,93.20
2018-01-22T19:47:16.605Z,93.20
2018-01-22T19:49:58.647Z,93.10
2018-01-22T19:52:31.131Z,93.10
2018-01-22T19:55:04.626Z,92.90
2018-01-22T19:57:34.959Z,92.80
2018-01-22T20:00:05.209Z,92.70
2018-01-22T20:02:35.305Z,92.80
2018-01-22T20:05:14.206Z,92.90
2018-01-22T20:07:44.647Z,93.00
2018-01-22T20:10:15.334Z,93.00
2018-01-22T20:12:46.187Z,92.90
2018-01-22T20:15:17.186Z,92.70
2018-01-22T20:17:46.812Z,92.70
2018-01-22T20:20:17.032Z,92.90
2018-01-22T20:22:48.767Z,92.90
2018-01-22T20:25:18.920Z,93.00
2018-01-22T20:27:49.945Z,93.00
2018-01-22T20:30:22.392Z,92.90
2018-01-22T20:32:52.899Z,92.90
2018-01-22T20:35:22.675Z,93.00
2018-01-22T20:37:54.347Z,93.10
2018-01-22T20:40:25.117Z,93.10
2018-01-22T20:42:56.137Z,93.00
2018-01-22T20:45:25.858Z,92.80
2018-01-22T20:47:55.644Z,93.00
2018-01-22T20:50:25.204Z,93.10
2018-01-22T20:52:54.767Z,92.90
2018-01-22T20:55:44.243Z,93.20
2018-01-22T20:58:23.005Z,93.20
2018-01-22T21:00:53.539Z,93.00
2018-01-22T21:03:25.393Z,93.10
2018-01-22T21:06:02.513Z,93.10
2018-01-22T21:08:34.235Z,93.20
2018-01-22T21:11:05.997Z,93.00
2018-01-22T21:13:40.792Z,93.00
2018-01-22T21:16:12.124Z,93.00
2018-01-22T21:18:42.176Z,93.00
2018-01-22T21:21:12.045Z,92.90
2018-01-22T21:23:42.034Z,93.00
2018-01-22T21:26:12.954Z,92.60
2018-01-22T21:28:43.008Z,92.60
2018-01-22T21:31:14.069Z,93.40
2018-01-22T21:33:43.955Z,93.40
2018-01-22T21:36:13.836Z,93.80
2018-01-22T21:38:43.711Z,93.70
2018-01-22T21:41:44.820Z,93.80
2018-01-22T21:44:15.732Z,94.30
2018-01-22T21:46:45.659Z,94.10
2018-01-22T21:49:15.518Z,94.20
2018-01-22T21:51:44.906Z,94.00
2018-01-22T21:54:15.647Z,94.00
2018-01-22T21:56:50.394Z,94.00
2018-01-22T21:59:20.688Z,93.90
2018-01-22T22:01:50.620Z,93.90
2018-01-22T22:04:20.341Z,93.70
2018-01-22T22:06:54.541Z,94.00
2018-01-22T22:09:27.586Z,94.00
2018-01-22T22:11:57.931Z,93.70
2018-01-22T22:14:29.603Z,94.00
2018-01-22T22:17:00.646Z,93.90
2018-01-22T22:19:32.520Z,94.00
2018-01-22T22:22:02.432Z,94.00
2018-01-22T22:24:32.264Z,93.80
2018-01-22T22:27:01.725Z,94.00
2018-01-22T22:29:31.691Z,94.10
2018-01-22T22:32:01.773Z,94.40
2018-01-22T22:34:32.609Z,94.40
2018-01-22T22:37:03.886Z,94.50
2018-01-22T22:39:33.544Z,94.40
2018-01-22T22:42:03.735Z,94.80
2018-01-22T22:44:51.346Z,95.10
2018-01-22T22:47:22.615Z,96.00
2018-01-22T22:50:05.201Z,96.00
2018-01-22T22:52:36.300Z,96.30
2018-01-22T22:55:08.538Z,97.10
2018-01-22T22:57:44.564Z,97.10
2018-01-22T23:00:24.003Z,97.20
2018-01-22T23:02:55.501Z,97.50
2018-01-22T23:05:25.502Z,97.90
2018-01-22T23:08:03.138Z,98.50
2018-01-22T23:10:33.636Z,98.20
2018-01-22T23:13:04.126Z,98.20
2018-01-22T23:15:35.672Z,98.30
2018-01-22T23:18:05.518Z,98.40
2018-01-22T23:20:37.520Z,98.70
2018-01-22T23:23:07.943Z,98.70
2018-01-22T23:25:53.236Z,98.80
2018-01-22T23:28:38.836Z,98.70
2018-01-22T23:31:15.272Z,98.90
2018-01-22T23:33:51.102Z,98.80
2018-01-22T23:36:21.819Z,98.70
2018-01-22T23:38:52.206Z,98.70
2018-01-22T23:41:23.140Z,98.90
2018-01-22T23:43:53.469Z,98.80
2018-01-22T23:46:23.963Z,98.80
2018-01-22T23:48:54.105Z,98.80
2018-01-22T23:51:24.051Z,99.00
2018-01-22T23:53:57.091Z,99.00
2018-01-22T23:56:30.237Z,98.90
2018-01-22T23:59:00.189Z,99.00
